sensor_id;sensor_type;location;lat;lon;timestamp;P1;durP1;ratioP1;P2;durP2;ratioP2
20776;SDS011;10548;47.504;8.248;2023-05-10T00:01:09;1.20;;;0.50;;
20776;SDS011;10548;47.504;8.248;2023-05-10T00:03:36;1.90;;;0.70;;
20776;SDS011;10548;47.504;8.248;2023-05-10T00:06:04;2.87;;;0.53;;
20776;SDS011;10548;47.504;8.248;2023-05-10T00:08:31;4.70;;;0.63;;
20776;SDS011;10548;47.504;8.248;2023-05-10T00:10:58;0.67;;;0.53;;
20776;SDS011;10548;47.504;8.248;2023-05-10T00:13:25;4.30;;;0.70;;
20776;SDS011;10548;47.504;8.248;2023-05-10T00:15:52;1.63;;;1.00;;
20776;SDS011;10548;47.504;8.248;2023-05-10T00:18:20;2.23;;;0.50;;
20776;SDS011;10548;47.504;8.248;2023-05-10T00:20:47;0.57;;;0.50;;
20776;SDS011;10548;47.504;8.248;2023-05-10T00:23:15;2.27;;;0.67;;
20776;SDS011;10548;47.504;8.248;2023-05-10T00:25:42;0.70;;;0.70;;
20776;SDS011;10548;47.504;8.248;2023-05-10T00:28:09;0.67;;;0.60;;
20776;SDS011;10548;47.504;8.248;2023-05-10T00:30:36;2.80;;;0.70;;
20776;SDS011;10548;47.504;8.248;2023-05-10T00:33:03;5.07;;;0.90;;
20776;SDS011;10548;47.504;8.248;2023-05-10T00:35:31;2.67;;;0.70;;
20776;SDS011;10548;47.504;8.248;2023-05-10T00:37:58;3.23;;;0.40;;
20776;SDS011;10548;47.504;8.248;2023-05-10T00:40:25;1.27;;;0.50;;
20776;SDS011;10548;47.504;8.248;2023-05-10T00:42:57;0.67;;;0.67;;
20776;SDS011;10548;47.504;8.248;2023-05-10T00:45:27;0.80;;;0.60;;
20776;SDS011;10548;47.504;8.248;2023-05-10T00:47:54;2.90;;;0.60;;
20776;SDS011;10548;47.504;8.248;2023-05-10T00:50:22;2.40;;;0.70;;
20776;SDS011;10548;47.504;8.248;2023-05-10T00:52:50;1.50;;;0.73;;
20776;SDS011;10548;47.504;8.248;2023-05-10T00:55:17;1.07;;;0.50;;
20776;SDS011;10548;47.504;8.248;2023-05-10T00:57:45;0.53;;;0.53;;
20776;SDS011;10548;47.504;8.248;2023-05-10T01:00:12;0.60;;;0.60;;
20776;SDS011;10548;47.504;8.248;2023-05-10T01:02:44;4.80;;;0.80;;
20776;SDS011;10548;47.504;8.248;2023-05-10T01:05:12;2.47;;;0.70;;
20776;SDS011;10548;47.504;8.248;2023-05-10T01:07:40;2.10;;;0.70;;
20776;SDS011;10548;47.504;8.248;2023-05-10T01:10:08;1.70;;;0.50;;
20776;SDS011;10548;47.504;8.248;2023-05-10T01:12:38;1.87;;;0.70;;
20776;SDS011;10548;47.504;8.248;2023-05-10T01:15:07;3.00;;;0.70;;
20776;SDS011;10548;47.504;8.248;2023-05-10T01:17:37;1.47;;;0.60;;
20776;SDS011;10548;47.504;8.248;2023-05-10T01:20:07;3.50;;;0.67;;
20776;SDS011;10548;47.504;8.248;2023-05-10T01:26:39;5.40;;;0.60;;
20776;SDS011;10548;47.504;8.248;2023-05-10T01:35:49;1.77;;;0.80;;
20776;SDS011;10548;47.504;8.248;2023-05-10T01:38:33;1.17;;;0.60;;
20776;SDS011;10548;47.504;8.248;2023-05-10T01:41:18;1.23;;;0.67;;
20776;SDS011;10548;47.504;8.248;2023-05-10T01:44:04;1.57;;;0.60;;
20776;SDS011;10548;47.504;8.248;2023-05-10T01:47:16;0.60;;;0.60;;
20776;SDS011;10548;47.504;8.248;2023-05-10T01:49:50;3.67;;;0.50;;
20776;SDS011;10548;47.504;8.248;2023-05-10T01:52:29;1.77;;;0.60;;
20776;SDS011;10548;47.504;8.248;2023-05-10T01:55:00;3.40;;;0.90;;
20776;SDS011;10548;47.504;8.248;2023-05-10T01:57:34;0.60;;;0.60;;
20776;SDS011;10548;47.504;8.248;2023-05-10T02:00:03;0.70;;;0.67;;
20776;SDS011;10548;47.504;8.248;2023-05-10T02:02:45;1.33;;;0.70;;
20776;SDS011;10548;47.504;8.248;2023-05-10T02:05:14;1.77;;;0.77;;
20776;SDS011;10548;47.504;8.248;2023-05-10T02:07:42;0.60;;;0.60;;
20776;SDS011;10548;47.504;8.248;2023-05-10T02:10:11;3.73;;;0.90;;
20776;SDS011;10548;47.504;8.248;2023-05-10T02:12:41;4.03;;;0.80;;
20776;SDS011;10548;47.504;8.248;2023-05-10T02:15:10;2.50;;;0.67;;
20776;SDS011;10548;47.504;8.248;2023-05-10T02:17:39;1.13;;;0.70;;
20776;SDS011;10548;47.504;8.248;2023-05-10T02:20:08;2.00;;;0.77;;
20776;SDS011;10548;47.504;8.248;2023-05-10T02:22:38;1.13;;;0.77;;
20776;SDS011;10548;47.504;8.248;2023-05-10T02:25:07;1.40;;;0.90;;
20776;SDS011;10548;47.504;8.248;2023-05-10T02:27:36;1.07;;;0.80;;
20776;SDS011;10548;47.504;8.248;2023-05-10T02:30:04;1.70;;;1.00;;
20776;SDS011;10548;47.504;8.248;2023-05-10T02:32:32;6.00;;;1.10;;
20776;SDS011;10548;47.504;8.248;2023-05-10T02:35:02;0.93;;;0.80;;
20776;SDS011;10548;47.504;8.248;2023-05-10T02:37:30;4.17;;;0.90;;
20776;SDS011;10548;47.504;8.248;2023-05-10T02:39:58;5.23;;;1.30;;
20776;SDS011;10548;47.504;8.248;2023-05-10T02:42:27;1.07;;;0.80;;
20776;SDS011;10548;47.504;8.248;2023-05-10T02:44:59;2.63;;;1.20;;
20776;SDS011;10548;47.504;8.248;2023-05-10T02:47:28;1.93;;;1.00;;
20776;SDS011;10548;47.504;8.248;2023-05-10T02:49:56;1.97;;;1.00;;
20776;SDS011;10548;47.504;8.248;2023-05-10T02:52:24;1.00;;;0.77;;
20776;SDS011;10548;47.504;8.248;2023-05-10T02:54:55;3.60;;;1.20;;
20776;SDS011;10548;47.504;8.248;2023-05-10T02:57:26;4.17;;;0.80;;
20776;SDS011;10548;47.504;8.248;2023-05-10T02:59:58;1.67;;;0.70;;
20776;SDS011;10548;47.504;8.248;2023-05-10T03:02:26;2.27;;;0.90;;
20776;SDS011;10548;47.504;8.248;2023-05-10T03:04:54;1.83;;;0.90;;
20776;SDS011;10548;47.504;8.248;2023-05-10T03:07:22;3.53;;;0.90;;
20776;SDS011;10548;47.504;8.248;2023-05-10T03:09:49;2.27;;;0.73;;
20776;SDS011;10548;47.504;8.248;2023-05-10T03:15:22;5.30;;;0.97;;
20776;SDS011;10548;47.504;8.248;2023-05-10T03:18:10;2.87;;;1.00;;
20776;SDS011;10548;47.504;8.248;2023-05-10T03:20:43;1.53;;;1.20;;
20776;SDS011;10548;47.504;8.248;2023-05-10T03:26:09;1.57;;;0.90;;
20776;SDS011;10548;47.504;8.248;2023-05-10T03:28:39;2.80;;;1.20;;
20776;SDS011;10548;47.504;8.248;2023-05-10T03:31:07;4.67;;;0.80;;
20776;SDS011;10548;47.504;8.248;2023-05-10T03:33:35;0.70;;;0.70;;
20776;SDS011;10548;47.504;8.248;2023-05-10T03:36:25;1.60;;;1.00;;
20776;SDS011;10548;47.504;8.248;2023-05-10T03:38:53;2.07;;;0.83;;
20776;SDS011;10548;47.504;8.248;2023-05-10T03:41:20;2.67;;;0.90;;
20776;SDS011;10548;47.504;8.248;2023-05-10T03:43:47;2.40;;;0.63;;
20776;SDS011;10548;47.504;8.248;2023-05-10T03:46:15;2.97;;;0.90;;
20776;SDS011;10548;47.504;8.248;2023-05-10T03:48:42;2.03;;;0.77;;
20776;SDS011;10548;47.504;8.248;2023-05-10T03:51:09;2.47;;;1.00;;
20776;SDS011;10548;47.504;8.248;2023-05-10T03:53:38;2.40;;;1.00;;
20776;SDS011;10548;47.504;8.248;2023-05-10T03:56:05;6.27;;;0.80;;
20776;SDS011;10548;47.504;8.248;2023-05-10T03:58:33;2.33;;;1.10;;
20776;SDS011;10548;47.504;8.248;2023-05-10T04:01:01;1.07;;;0.90;;
20776;SDS011;10548;47.504;8.248;2023-05-10T04:03:29;4.80;;;1.10;;
20776;SDS011;10548;47.504;8.248;2023-05-10T04:05:59;3.05;;;0.88;;
20776;SDS011;10548;47.504;8.248;2023-05-10T04:08:28;3.50;;;0.90;;
20776;SDS011;10548;47.504;8.248;2023-05-10T04:11:05;3.40;;;1.03;;
20776;SDS011;10548;47.504;8.248;2023-05-10T04:13:37;2.30;;;0.80;;
20776;SDS011;10548;47.504;8.248;2023-05-10T04:16:04;4.60;;;1.50;;
20776;SDS011;10548;47.504;8.248;2023-05-10T04:18:32;1.13;;;0.90;;
20776;SDS011;10548;47.504;8.248;2023-05-10T04:20:59;4.47;;;1.03;;
20776;SDS011;10548;47.504;8.248;2023-05-10T04:23:26;1.43;;;0.70;;
20776;SDS011;10548;47.504;8.248;2023-05-10T04:26:00;1.00;;;0.80;;
20776;SDS011;10548;47.504;8.248;2023-05-10T04:28:28;5.43;;;1.00;;
20776;SDS011;10548;47.504;8.248;2023-05-10T04:31:05;1.63;;;0.80;;
20776;SDS011;10548;47.504;8.248;2023-05-10T04:33:33;2.87;;;0.87;;
20776;SDS011;10548;47.504;8.248;2023-05-10T04:36:01;5.43;;;1.00;;
20776;SDS011;10548;47.504;8.248;2023-05-10T04:38:28;4.83;;;0.70;;
20776;SDS011;10548;47.504;8.248;2023-05-10T04:41:05;1.87;;;0.80;;
20776;SDS011;10548;47.504;8.248;2023-05-10T04:43:36;1.50;;;0.90;;
20776;SDS011;10548;47.504;8.248;2023-05-10T04:46:04;1.27;;;0.80;;
20776;SDS011;10548;47.504;8.248;2023-05-10T04:48:31;0.87;;;0.70;;
20776;SDS011;10548;47.504;8.248;2023-05-10T04:50:59;3.53;;;0.60;;
20776;SDS011;10548;47.504;8.248;2023-05-10T04:53:26;1.37;;;0.70;;
20776;SDS011;10548;47.504;8.248;2023-05-10T04:55:53;1.43;;;0.70;;
20776;SDS011;10548;47.504;8.248;2023-05-10T04:58:21;1.07;;;0.67;;
20776;SDS011;10548;47.504;8.248;2023-05-10T05:00:48;3.63;;;0.70;;
20776;SDS011;10548;47.504;8.248;2023-05-10T05:03:15;2.63;;;0.77;;
20776;SDS011;10548;47.504;8.248;2023-05-10T05:05:43;1.57;;;0.57;;
20776;SDS011;10548;47.504;8.248;2023-05-10T05:08:11;0.97;;;0.70;;
20776;SDS011;10548;47.504;8.248;2023-05-10T05:10:38;1.00;;;0.70;;
20776;SDS011;10548;47.504;8.248;2023-05-10T05:13:05;0.70;;;0.70;;
20776;SDS011;10548;47.504;8.248;2023-05-10T05:15:33;1.83;;;0.80;;
20776;SDS011;10548;47.504;8.248;2023-05-10T05:18:00;1.80;;;0.80;;
20776;SDS011;10548;47.504;8.248;2023-05-10T05:20:27;0.77;;;0.77;;
20776;SDS011;10548;47.504;8.248;2023-05-10T05:22:54;1.87;;;0.80;;
20776;SDS011;10548;47.504;8.248;2023-05-10T05:25:22;3.10;;;0.80;;
20776;SDS011;10548;47.504;8.248;2023-05-10T05:27:49;2.67;;;0.93;;
20776;SDS011;10548;47.504;8.248;2023-05-10T05:30:16;1.37;;;0.97;;
20776;SDS011;10548;47.504;8.248;2023-05-10T05:32:44;2.90;;;0.73;;
20776;SDS011;10548;47.504;8.248;2023-05-10T05:35:11;4.13;;;0.70;;
20776;SDS011;10548;47.504;8.248;2023-05-10T05:37:38;0.93;;;0.70;;
20776;SDS011;10548;47.504;8.248;2023-05-10T05:40:06;3.27;;;0.90;;
20776;SDS011;10548;47.504;8.248;2023-05-10T05:42:34;1.10;;;0.80;;
20776;SDS011;10548;47.504;8.248;2023-05-10T05:45:01;1.07;;;0.80;;
20776;SDS011;10548;47.504;8.248;2023-05-10T05:47:28;1.37;;;0.93;;
20776;SDS011;10548;47.504;8.248;2023-05-10T05:49:55;1.20;;;1.00;;
20776;SDS011;10548;47.504;8.248;2023-05-10T05:52:22;1.47;;;1.00;;
20776;SDS011;10548;47.504;8.248;2023-05-10T05:54:50;2.03;;;1.00;;
20776;SDS011;10548;47.504;8.248;2023-05-10T05:57:17;1.67;;;1.10;;
20776;SDS011;10548;47.504;8.248;2023-05-10T05:59:44;1.60;;;0.80;;
20776;SDS011;10548;47.504;8.248;2023-05-10T06:02:12;1.80;;;0.60;;
20776;SDS011;10548;47.504;8.248;2023-05-10T06:04:39;0.80;;;0.80;;
20776;SDS011;10548;47.504;8.248;2023-05-10T06:07:10;2.30;;;0.60;;
20776;SDS011;10548;47.504;8.248;2023-05-10T06:09:37;5.10;;;0.80;;
20776;SDS011;10548;47.504;8.248;2023-05-10T06:12:04;0.93;;;0.57;;
20776;SDS011;10548;47.504;8.248;2023-05-10T06:14:31;0.57;;;0.50;;
20776;SDS011;10548;47.504;8.248;2023-05-10T06:16:59;0.97;;;0.50;;
20776;SDS011;10548;47.504;8.248;2023-05-10T06:19:26;2.07;;;0.60;;
20776;SDS011;10548;47.504;8.248;2023-05-10T06:21:53;1.60;;;0.70;;
20776;SDS011;10548;47.504;8.248;2023-05-10T06:24:21;1.47;;;0.87;;
20776;SDS011;10548;47.504;8.248;2023-05-10T06:26:48;1.30;;;0.80;;
20776;SDS011;10548;47.504;8.248;2023-05-10T06:29:16;1.70;;;0.90;;
20776;SDS011;10548;47.504;8.248;2023-05-10T06:31:43;6.67;;;0.90;;
20776;SDS011;10548;47.504;8.248;2023-05-10T06:34:11;1.57;;;0.77;;
20776;SDS011;10548;47.504;8.248;2023-05-10T06:36:38;0.73;;;0.57;;
20776;SDS011;10548;47.504;8.248;2023-05-10T06:39:05;1.03;;;0.73;;
20776;SDS011;10548;47.504;8.248;2023-05-10T06:41:33;0.80;;;0.67;;
20776;SDS011;10548;47.504;8.248;2023-05-10T06:44:00;3.27;;;1.00;;
20776;SDS011;10548;47.504;8.248;2023-05-10T06:46:27;1.50;;;0.80;;
20776;SDS011;10548;47.504;8.248;2023-05-10T06:48:54;3.30;;;1.10;;
20776;SDS011;10548;47.504;8.248;2023-05-10T06:51:21;2.30;;;0.70;;
20776;SDS011;10548;47.504;8.248;2023-05-10T06:53:49;3.03;;;1.00;;
20776;SDS011;10548;47.504;8.248;2023-05-10T06:56:16;2.93;;;1.00;;
20776;SDS011;10548;47.504;8.248;2023-05-10T06:58:43;3.93;;;0.80;;
20776;SDS011;10548;47.504;8.248;2023-05-10T07:01:10;1.50;;;1.00;;
20776;SDS011;10548;47.504;8.248;2023-05-10T07:03:37;2.70;;;0.93;;
20776;SDS011;10548;47.504;8.248;2023-05-10T07:06:05;4.17;;;0.93;;
20776;SDS011;10548;47.504;8.248;2023-05-10T07:08:43;2.77;;;1.30;;
20776;SDS011;10548;47.504;8.248;2023-05-10T07:11:10;2.23;;;1.00;;
20776;SDS011;10548;47.504;8.248;2023-05-10T07:13:38;2.43;;;0.90;;
20776;SDS011;10548;47.504;8.248;2023-05-10T07:16:07;4.50;;;1.20;;
20776;SDS011;10548;47.504;8.248;2023-05-10T07:18:35;2.37;;;1.10;;
20776;SDS011;10548;47.504;8.248;2023-05-10T07:21:02;1.77;;;1.10;;
20776;SDS011;10548;47.504;8.248;2023-05-10T07:23:30;5.07;;;1.50;;
20776;SDS011;10548;47.504;8.248;2023-05-10T07:25:57;9.37;;;1.20;;
20776;SDS011;10548;47.504;8.248;2023-05-10T07:28:24;6.93;;;1.20;;
20776;SDS011;10548;47.504;8.248;2023-05-10T07:30:52;2.37;;;1.10;;
20776;SDS011;10548;47.504;8.248;2023-05-10T07:33:19;3.80;;;1.00;;
20776;SDS011;10548;47.504;8.248;2023-05-10T07:35:47;2.57;;;1.10;;
20776;SDS011;10548;47.504;8.248;2023-05-10T07:38:15;4.13;;;1.23;;
20776;SDS011;10548;47.504;8.248;2023-05-10T07:40:43;2.33;;;1.13;;
20776;SDS011;10548;47.504;8.248;2023-05-10T07:43:11;1.87;;;1.10;;
20776;SDS011;10548;47.504;8.248;2023-05-10T07:45:38;5.75;;;1.40;;
20776;SDS011;10548;47.504;8.248;2023-05-10T07:48:06;4.63;;;1.30;;
20776;SDS011;10548;47.504;8.248;2023-05-10T07:50:34;5.10;;;1.20;;
20776;SDS011;10548;47.504;8.248;2023-05-10T07:53:01;7.77;;;1.60;;
20776;SDS011;10548;47.504;8.248;2023-05-10T07:55:29;5.50;;;1.20;;
20776;SDS011;10548;47.504;8.248;2023-05-10T07:57:56;2.57;;;1.17;;
20776;SDS011;10548;47.504;8.248;2023-05-10T08:00:24;5.73;;;1.57;;
20776;SDS011;10548;47.504;8.248;2023-05-10T08:02:52;3.23;;;1.23;;
20776;SDS011;10548;47.504;8.248;2023-05-10T08:05:19;3.40;;;1.43;;
20776;SDS011;10548;47.504;8.248;2023-05-10T08:07:47;7.43;;;1.40;;
20776;SDS011;10548;47.504;8.248;2023-05-10T08:10:14;5.07;;;1.27;;
20776;SDS011;10548;47.504;8.248;2023-05-10T08:12:43;2.07;;;1.10;;
20776;SDS011;10548;47.504;8.248;2023-05-10T08:15:10;4.83;;;1.17;;
20776;SDS011;10548;47.504;8.248;2023-05-10T08:17:38;2.73;;;1.03;;
20776;SDS011;10548;47.504;8.248;2023-05-10T08:20:06;4.00;;;1.63;;
20776;SDS011;10548;47.504;8.248;2023-05-10T08:22:34;8.77;;;1.40;;
20776;SDS011;10548;47.504;8.248;2023-05-10T08:25:02;4.10;;;1.40;;
20776;SDS011;10548;47.504;8.248;2023-05-10T08:27:29;2.53;;;1.33;;
20776;SDS011;10548;47.504;8.248;2023-05-10T08:29:57;3.47;;;1.50;;
20776;SDS011;10548;47.504;8.248;2023-05-10T08:32:24;3.90;;;1.00;;
20776;SDS011;10548;47.504;8.248;2023-05-10T08:34:52;3.57;;;1.13;;
20776;SDS011;10548;47.504;8.248;2023-05-10T08:37:19;4.67;;;1.50;;
20776;SDS011;10548;47.504;8.248;2023-05-10T08:39:47;2.83;;;1.20;;
20776;SDS011;10548;47.504;8.248;2023-05-10T08:42:16;6.57;;;1.30;;
20776;SDS011;10548;47.504;8.248;2023-05-10T08:44:43;6.97;;;1.53;;
20776;SDS011;10548;47.504;8.248;2023-05-10T08:47:15;3.93;;;1.20;;
20776;SDS011;10548;47.504;8.248;2023-05-10T08:49:44;2.60;;;1.30;;
20776;SDS011;10548;47.504;8.248;2023-05-10T08:52:14;4.07;;;1.40;;
20776;SDS011;10548;47.504;8.248;2023-05-10T08:54:42;7.27;;;1.53;;
20776;SDS011;10548;47.504;8.248;2023-05-10T08:57:10;3.20;;;1.23;;
20776;SDS011;10548;47.504;8.248;2023-05-10T08:59:38;6.30;;;1.40;;
20776;SDS011;10548;47.504;8.248;2023-05-10T09:02:06;11.13;;;1.60;;
20776;SDS011;10548;47.504;8.248;2023-05-10T09:04:36;1.80;;;1.10;;
20776;SDS011;10548;47.504;8.248;2023-05-10T09:07:04;2.87;;;1.13;;
20776;SDS011;10548;47.504;8.248;2023-05-10T09:09:32;8.17;;;1.90;;
20776;SDS011;10548;47.504;8.248;2023-05-10T09:12:00;7.43;;;1.60;;
20776;SDS011;10548;47.504;8.248;2023-05-10T09:14:27;7.63;;;1.23;;
20776;SDS011;10548;47.504;8.248;2023-05-10T09:16:55;9.23;;;2.10;;
20776;SDS011;10548;47.504;8.248;2023-05-10T09:19:23;7.43;;;1.53;;
20776;SDS011;10548;47.504;8.248;2023-05-10T09:21:51;6.40;;;1.20;;
20776;SDS011;10548;47.504;8.248;2023-05-10T09:24:18;4.27;;;1.87;;
20776;SDS011;10548;47.504;8.248;2023-05-10T09:26:46;5.80;;;1.73;;
20776;SDS011;10548;47.504;8.248;2023-05-10T09:29:14;3.63;;;1.40;;
20776;SDS011;10548;47.504;8.248;2023-05-10T09:31:52;5.27;;;1.30;;
20776;SDS011;10548;47.504;8.248;2023-05-10T09:34:28;3.97;;;1.50;;
20776;SDS011;10548;47.504;8.248;2023-05-10T09:37:00;5.07;;;1.20;;
20776;SDS011;10548;47.504;8.248;2023-05-10T09:39:34;4.57;;;1.10;;
20776;SDS011;10548;47.504;8.248;2023-05-10T09:42:06;8.13;;;1.00;;
20776;SDS011;10548;47.504;8.248;2023-05-10T09:44:34;4.60;;;1.30;;
20776;SDS011;10548;47.504;8.248;2023-05-10T09:47:02;8.97;;;1.60;;
20776;SDS011;10548;47.504;8.248;2023-05-10T09:49:29;3.67;;;1.10;;
20776;SDS011;10548;47.504;8.248;2023-05-10T09:51:59;6.83;;;1.53;;
20776;SDS011;10548;47.504;8.248;2023-05-10T09:54:27;4.27;;;1.10;;
20776;SDS011;10548;47.504;8.248;2023-05-10T09:56:54;3.70;;;1.13;;
20776;SDS011;10548;47.504;8.248;2023-05-10T09:59:21;4.53;;;1.53;;
20776;SDS011;10548;47.504;8.248;2023-05-10T10:01:52;2.90;;;1.30;;
20776;SDS011;10548;47.504;8.248;2023-05-10T10:04:20;3.70;;;0.90;;
20776;SDS011;10548;47.504;8.248;2023-05-10T10:06:57;4.37;;;1.50;;
20776;SDS011;10548;47.504;8.248;2023-05-10T10:09:26;4.53;;;1.20;;
20776;SDS011;10548;47.504;8.248;2023-05-10T10:11:53;2.53;;;1.30;;
20776;SDS011;10548;47.504;8.248;2023-05-10T10:14:22;4.37;;;1.00;;
20776;SDS011;10548;47.504;8.248;2023-05-10T10:16:53;3.93;;;1.00;;
20776;SDS011;10548;47.504;8.248;2023-05-10T10:19:33;5.27;;;1.30;;
20776;SDS011;10548;47.504;8.248;2023-05-10T10:22:04;4.53;;;1.40;;
20776;SDS011;10548;47.504;8.248;2023-05-10T10:24:32;3.93;;;1.07;;
20776;SDS011;10548;47.504;8.248;2023-05-10T10:27:07;6.90;;;1.20;;
20776;SDS011;10548;47.504;8.248;2023-05-10T10:32:33;4.97;;;1.40;;
20776;SDS011;10548;47.504;8.248;2023-05-10T10:35:05;5.87;;;1.10;;
20776;SDS011;10548;47.504;8.248;2023-05-10T10:37:47;3.17;;;1.20;;
20776;SDS011;10548;47.504;8.248;2023-05-10T10:43:21;6.60;;;1.23;;
20776;SDS011;10548;47.504;8.248;2023-05-10T10:48:36;3.17;;;0.90;;
20776;SDS011;10548;47.504;8.248;2023-05-10T10:51:03;6.07;;;1.50;;
20776;SDS011;10548;47.504;8.248;2023-05-10T10:53:30;4.93;;;0.90;;
20776;SDS011;10548;47.504;8.248;2023-05-10T10:56:08;3.17;;;0.80;;
20776;SDS011;10548;47.504;8.248;2023-05-10T10:58:37;4.70;;;1.50;;
20776;SDS011;10548;47.504;8.248;2023-05-10T11:01:18;3.97;;;0.90;;
20776;SDS011;10548;47.504;8.248;2023-05-10T11:06:46;2.13;;;1.10;;
20776;SDS011;10548;47.504;8.248;2023-05-10T11:09:14;3.97;;;1.00;;
20776;SDS011;10548;47.504;8.248;2023-05-10T11:11:51;3.37;;;0.90;;
20776;SDS011;10548;47.504;8.248;2023-05-10T11:14:22;4.70;;;1.20;;
20776;SDS011;10548;47.504;8.248;2023-05-10T11:16:49;3.73;;;1.37;;
20776;SDS011;10548;47.504;8.248;2023-05-10T11:19:17;3.47;;;1.20;;
20776;SDS011;10548;47.504;8.248;2023-05-10T11:21:47;3.60;;;1.03;;
20776;SDS011;10548;47.504;8.248;2023-05-10T11:24:19;3.00;;;1.20;;
20776;SDS011;10548;47.504;8.248;2023-05-10T11:26:48;2.77;;;1.23;;
20776;SDS011;10548;47.504;8.248;2023-05-10T11:29:16;5.03;;;1.40;;
20776;SDS011;10548;47.504;8.248;2023-05-10T11:31:44;4.23;;;1.30;;
20776;SDS011;10548;47.504;8.248;2023-05-10T11:34:29;9.03;;;1.20;;
20776;SDS011;10548;47.504;8.248;2023-05-10T11:36:57;5.20;;;1.10;;
20776;SDS011;10548;47.504;8.248;2023-05-10T11:39:28;4.23;;;1.30;;
20776;SDS011;10548;47.504;8.248;2023-05-10T11:41:56;4.17;;;1.00;;
20776;SDS011;10548;47.504;8.248;2023-05-10T11:44:29;3.93;;;1.23;;
20776;SDS011;10548;47.504;8.248;2023-05-10T11:47:00;4.57;;;1.30;;
20776;SDS011;10548;47.504;8.248;2023-05-10T11:49:28;3.60;;;1.20;;
20776;SDS011;10548;47.504;8.248;2023-05-10T11:52:07;4.80;;;1.20;;
20776;SDS011;10548;47.504;8.248;2023-05-10T11:54:35;7.53;;;1.10;;
20776;SDS011;10548;47.504;8.248;2023-05-10T11:57:03;5.53;;;1.30;;
20776;SDS011;10548;47.504;8.248;2023-05-10T11:59:30;5.93;;;1.30;;
20776;SDS011;10548;47.504;8.248;2023-05-10T12:01:58;6.20;;;1.30;;
20776;SDS011;10548;47.504;8.248;2023-05-10T12:04:26;3.70;;;1.30;;
20776;SDS011;10548;47.504;8.248;2023-05-10T12:06:56;5.57;;;1.33;;
20776;SDS011;10548;47.504;8.248;2023-05-10T12:09:23;3.17;;;1.33;;
20776;SDS011;10548;47.504;8.248;2023-05-10T12:12:08;3.30;;;1.10;;
20776;SDS011;10548;47.504;8.248;2023-05-10T12:14:36;3.37;;;1.10;;
20776;SDS011;10548;47.504;8.248;2023-05-10T12:17:04;3.03;;;1.00;;
20776;SDS011;10548;47.504;8.248;2023-05-10T12:19:37;5.93;;;1.20;;
20776;SDS011;10548;47.504;8.248;2023-05-10T12:22:05;4.43;;;1.10;;
20776;SDS011;10548;47.504;8.248;2023-05-10T12:24:34;7.37;;;1.03;;
20776;SDS011;10548;47.504;8.248;2023-05-10T12:27:04;4.80;;;1.40;;
20776;SDS011;10548;47.504;8.248;2023-05-10T12:29:34;5.20;;;1.10;;
20776;SDS011;10548;47.504;8.248;2023-05-10T12:32:02;7.90;;;1.40;;
20776;SDS011;10548;47.504;8.248;2023-05-10T12:34:33;3.10;;;1.20;;
20776;SDS011;10548;47.504;8.248;2023-05-10T12:37:02;3.93;;;1.40;;
20776;SDS011;10548;47.504;8.248;2023-05-10T12:39:39;4.17;;;1.30;;
20776;SDS011;10548;47.504;8.248;2023-05-10T12:42:07;2.17;;;1.00;;
20776;SDS011;10548;47.504;8.248;2023-05-10T12:44:35;2.20;;;0.90;;
20776;SDS011;10548;47.504;8.248;2023-05-10T12:47:02;2.57;;;0.93;;
20776;SDS011;10548;47.504;8.248;2023-05-10T12:49:30;2.77;;;1.10;;
20776;SDS011;10548;47.504;8.248;2023-05-10T12:51:58;4.50;;;1.23;;
20776;SDS011;10548;47.504;8.248;2023-05-10T12:54:26;2.43;;;1.10;;
20776;SDS011;10548;47.504;8.248;2023-05-10T12:56:54;2.83;;;0.97;;
20776;SDS011;10548;47.504;8.248;2023-05-10T12:59:21;3.03;;;1.00;;
20776;SDS011;10548;47.504;8.248;2023-05-10T13:01:49;5.90;;;1.30;;
20776;SDS011;10548;47.504;8.248;2023-05-10T13:04:16;3.93;;;1.20;;
20776;SDS011;10548;47.504;8.248;2023-05-10T13:06:44;2.67;;;0.90;;
20776;SDS011;10548;47.504;8.248;2023-05-10T13:09:11;4.53;;;1.10;;
20776;SDS011;10548;47.504;8.248;2023-05-10T13:11:38;4.77;;;1.30;;
20776;SDS011;10548;47.504;8.248;2023-05-10T13:14:06;4.93;;;1.00;;
20776;SDS011;10548;47.504;8.248;2023-05-10T13:16:34;4.00;;;1.03;;
20776;SDS011;10548;47.504;8.248;2023-05-10T13:19:01;2.93;;;1.10;;
20776;SDS011;10548;47.504;8.248;2023-05-10T13:21:29;3.93;;;1.00;;
20776;SDS011;10548;47.504;8.248;2023-05-10T13:23:56;3.07;;;1.20;;
20776;SDS011;10548;47.504;8.248;2023-05-10T13:26:24;3.03;;;1.10;;
20776;SDS011;10548;47.504;8.248;2023-05-10T13:28:52;5.10;;;1.20;;
20776;SDS011;10548;47.504;8.248;2023-05-10T13:31:22;3.37;;;1.00;;
20776;SDS011;10548;47.504;8.248;2023-05-10T13:33:49;3.03;;;1.17;;
20776;SDS011;10548;47.504;8.248;2023-05-10T13:36:17;1.83;;;0.97;;
20776;SDS011;10548;47.504;8.248;2023-05-10T13:38:44;5.23;;;1.13;;
20776;SDS011;10548;47.504;8.248;2023-05-10T13:41:12;5.57;;;1.30;;
20776;SDS011;10548;47.504;8.248;2023-05-10T13:43:40;4.83;;;1.23;;
20776;SDS011;10548;47.504;8.248;2023-05-10T13:46:07;6.97;;;1.30;;
20776;SDS011;10548;47.504;8.248;2023-05-10T13:48:35;5.37;;;1.10;;
20776;SDS011;10548;47.504;8.248;2023-05-10T13:51:05;2.60;;;1.13;;
20776;SDS011;10548;47.504;8.248;2023-05-10T13:53:32;3.87;;;1.23;;
20776;SDS011;10548;47.504;8.248;2023-05-10T13:56:00;5.33;;;1.00;;
20776;SDS011;10548;47.504;8.248;2023-05-10T13:58:29;2.23;;;1.00;;
20776;SDS011;10548;47.504;8.248;2023-05-10T14:00:56;3.53;;;0.90;;
20776;SDS011;10548;47.504;8.248;2023-05-10T14:03:24;3.17;;;1.37;;
20776;SDS011;10548;47.504;8.248;2023-05-10T14:05:52;7.57;;;1.33;;
20776;SDS011;10548;47.504;8.248;2023-05-10T14:08:19;1.97;;;1.00;;
20776;SDS011;10548;47.504;8.248;2023-05-10T14:10:47;3.53;;;0.97;;
20776;SDS011;10548;47.504;8.248;2023-05-10T14:13:15;4.67;;;0.80;;
20776;SDS011;10548;47.504;8.248;2023-05-10T14:15:42;2.00;;;0.90;;
20776;SDS011;10548;47.504;8.248;2023-05-10T14:18:10;3.17;;;0.97;;
20776;SDS011;10548;47.504;8.248;2023-05-10T14:20:37;4.50;;;0.80;;
20776;SDS011;10548;47.504;8.248;2023-05-10T14:23:05;2.60;;;0.80;;
20776;SDS011;10548;47.504;8.248;2023-05-10T14:25:34;4.57;;;0.80;;
20776;SDS011;10548;47.504;8.248;2023-05-10T14:28:02;2.30;;;0.70;;
20776;SDS011;10548;47.504;8.248;2023-05-10T14:30:30;2.90;;;0.80;;
20776;SDS011;10548;47.504;8.248;2023-05-10T14:32:58;4.57;;;0.60;;
20776;SDS011;10548;47.504;8.248;2023-05-10T14:35:27;1.87;;;0.77;;
20776;SDS011;10548;47.504;8.248;2023-05-10T14:37:57;1.93;;;0.80;;
20776;SDS011;10548;47.504;8.248;2023-05-10T14:40:25;1.90;;;0.60;;
20776;SDS011;10548;47.504;8.248;2023-05-10T14:42:52;2.33;;;0.60;;
20776;SDS011;10548;47.504;8.248;2023-05-10T14:45:20;4.93;;;0.93;;
20776;SDS011;10548;47.504;8.248;2023-05-10T14:47:48;2.40;;;0.90;;
20776;SDS011;10548;47.504;8.248;2023-05-10T14:50:16;2.13;;;0.60;;
20776;SDS011;10548;47.504;8.248;2023-05-10T14:53:01;3.23;;;1.00;;
20776;SDS011;10548;47.504;8.248;2023-05-10T14:55:29;3.60;;;0.77;;
20776;SDS011;10548;47.504;8.248;2023-05-10T14:57:56;3.17;;;0.70;;
20776;SDS011;10548;47.504;8.248;2023-05-10T15:00:25;1.97;;;0.70;;
20776;SDS011;10548;47.504;8.248;2023-05-10T15:02:52;1.63;;;0.60;;
20776;SDS011;10548;47.504;8.248;2023-05-10T15:05:21;3.00;;;0.70;;
20776;SDS011;10548;47.504;8.248;2023-05-10T15:07:49;1.20;;;0.57;;
20776;SDS011;10548;47.504;8.248;2023-05-10T15:10:17;4.33;;;0.90;;
20776;SDS011;10548;47.504;8.248;2023-05-10T15:12:44;2.43;;;0.70;;
20776;SDS011;10548;47.504;8.248;2023-05-10T15:15:12;1.40;;;0.70;;
20776;SDS011;10548;47.504;8.248;2023-05-10T15:17:40;2.30;;;0.67;;
20776;SDS011;10548;47.504;8.248;2023-05-10T15:20:07;2.67;;;1.17;;
20776;SDS011;10548;47.504;8.248;2023-05-10T15:22:35;2.10;;;0.70;;
20776;SDS011;10548;47.504;8.248;2023-05-10T15:25:02;3.90;;;0.90;;
20776;SDS011;10548;47.504;8.248;2023-05-10T15:27:30;4.20;;;1.13;;